Time;durP1;ratioP1;P1;durP2;ratioP2;P2;SDS_P1;SDS_P2;PMS_P1;PMS_P2;Temp;Humidity;BMP_temperature;BMP_pressure;BME280_temperature;BME280_humidity;BME280_pressure;Samples;Min_cycle;Max_cycle;Signal;HPM_P1;HPM_P2
2023/04/10 00:01:40;;;;;;;15.40;7.90;;;;;;;9.26;68.00;102226.09;6102248;19;20843;-77
2023/04/10 00:03:46;;;;;;;16.55;9.40;;;;;;;9.23;68.33;102227.00;6100544;19;20010;-77
2023/04/10 00:05:59;;;;;;;16.50;9.80;;;;;;;9.20;68.30;102219.16;6099841;19;20494;-70
2023/04/10 00:08:04;;;;;;;15.35;8.68;;;;;;;9.14;68.32;102227.13;6096155;19;20007;-71
2023/04/10 00:10:19;;;;;;;15.50;8.57;;;;;;;9.20;68.48;102211.28;6094251;19;20011;-71
2023/04/10 00:12:32;;;;;;;16.42;8.52;;;;;;;9.16;68.72;102214.88;6100403;19;20047;-70
2023/04/10 00:14:37;;;;;;;19.23;9.02;;;;;;;9.12;68.36;102209.66;6096212;19;20014;-70
2023/04/10 00:16:43;;;;;;;15.65;8.73;;;;;;;9.07;68.81;102209.72;6098870;19;20014;-70
2023/04/10 00:18:52;;;;;;;17.05;9.82;;;;;;;9.08;68.96;102215.81;6102862;19;20011;-71
2023/04/10 00:20:57;;;;;;;17.20;8.80;;;;;;;8.99;69.30;102212.44;6098126;19;20018;-71
2023/04/10 00:23:07;;;;;;;18.13;9.95;;;;;;;8.99;69.27;102208.94;6101098;19;20006;-70
2023/04/10 00:25:12;;;;;;;16.30;10.32;;;;;;;9.04;69.25;102209.75;6101778;19;20041;-71
2023/04/10 00:27:21;;;;;;;17.25;9.88;;;;;;;9.02;69.53;102208.91;6101710;19;20007;-71
2023/04/10 00:29:31;;;;;;;16.88;9.45;;;;;;;9.00;68.92;102203.69;6101926;19;20383;-71
2023/04/10 00:31:47;;;;;;;15.13;9.05;;;;;;;9.01;69.10;102210.66;6096230;19;20007;-70
2023/04/10 00:33:56;;;;;;;15.35;8.52;;;;;;;8.97;69.16;102210.72;6098013;19;20010;-70
2023/04/10 00:36:03;;;;;;;17.42;9.45;;;;;;;8.99;69.26;102201.94;6101946;19;20007;-70
2023/04/10 00:38:09;;;;;;;17.45;9.35;;;;;;;9.02;68.93;102196.66;6097735;19;20442;-71
2023/04/10 00:40:29;;;;;;;15.55;8.88;;;;;;;9.04;68.78;102196.66;6100438;19;20015;-71
2023/04/10 00:42:44;;;;;;;13.82;9.13;;;;;;;9.07;68.88;102193.97;6100172;19;20018;-71
2023/04/10 00:44:58;;;;;;;16.83;9.93;;;;;;;9.12;68.33;102186.94;6089967;19;20014;-71
2023/04/10 00:47:06;;;;;;;15.88;8.65;;;;;;;9.20;67.87;102186.81;6099202;19;20074;-71
2023/04/10 00:49:13;;;;;;;14.68;8.23;;;;;;;9.20;67.99;102186.81;6100738;19;20373;-70
2023/04/10 00:51:27;;;;;;;15.52;8.07;;;;;;;9.13;68.28;102180.78;6099756;19;20488;-71
2023/04/10 00:53:33;;;;;;;15.18;8.80;;;;;;;9.12;68.08;102183.44;6084575;19;20029;-71
2023/04/10 00:55:43;;;;;;;13.40;8.82;;;;;;;9.10;67.98;102178.19;6098535;19;20074;-71
2023/04/10 00:57:58;;;;;;;15.23;7.70;;;;;;;9.06;68.31;102180.88;6097251;19;20041;-71
2023/04/10 01:00:08;;;;;;;14.77;8.77;;;;;;;9.01;68.24;102170.47;6099069;19;20013;-72
2023/04/10 01:02:24;;;;;;;14.07;8.13;;;;;;;9.02;68.37;102159.09;6091111;19;20585;-71
2023/04/10 01:04:31;;;;;;;17.00;7.80;;;;;;;9.09;68.32;102150.25;6098779;19;20027;-71
2023/04/10 01:06:54;;;;;;;14.73;7.97;;;;;;;9.04;68.66;102157.31;6096545;19;20439;-71
2023/04/10 01:09:08;;;;;;;13.48;7.65;;;;;;;9.05;68.63;102147.69;6099119;19;20498;-71
2023/04/10 01:11:26;;;;;;;13.68;7.07;;;;;;;9.04;68.26;102144.22;6097824;19;20011;-71
2023/04/10 01:13:40;;;;;;;13.50;7.60;;;;;;;9.07;68.10;102145.91;6094585;19;20006;-71
2023/04/10 01:15:54;;;;;;;15.35;8.32;;;;;;;9.00;68.66;102142.50;6091511;19;20114;-71
2023/04/10 01:18:08;;;;;;;14.93;8.32;;;;;;;9.03;68.56;102137.25;6100332;19;20003;-71
2023/04/10 01:20:18;;;;;;;14.05;8.10;;;;;;;9.03;68.37;102139.84;6086400;19;20527;-71
2023/04/10 01:22:31;;;;;;;15.63;8.82;;;;;;;9.00;68.44;102134.63;6064939;19;20014;-71
2023/04/10 01:25:01;;;;;;;13.98;8.30;;;;;;;8.95;68.86;102131.19;6079513;19;20010;-71
2023/04/10 01:27:26;;;;;;;12.48;7.43;;;;;;;8.92;68.88;102126.00;6096592;19;20050;-71
2023/04/10 01:29:40;;;;;;;15.07;8.05;;;;;;;8.90;68.98;102122.53;6091988;19;20328;-71
2023/04/10 01:31:54;;;;;;;14.98;8.38;;;;;;;8.99;68.58;102127.66;6096023;19;20086;-78
2023/04/10 01:34:06;;;;;;;13.50;8.40;;;;;;;8.93;69.05;102119.91;6098664;19;20034;-78
2023/04/10 01:36:15;;;;;;;14.18;7.50;;;;;;;8.95;68.72;102118.97;6099985;19;20007;-78
2023/04/10 01:38:23;;;;;;;17.17;8.50;;;;;;;8.95;68.94;102121.59;6098080;19;20006;-78
2023/04/10 01:40:33;;;;;;;17.80;8.18;;;;;;;8.93;68.80;102122.50;6094242;19;20030;-71
2023/04/10 01:42:50;;;;;;;15.20;7.80;;;;;;;8.98;69.05;102116.31;6097925;19;20023;-72
2023/04/10 01:45:11;;;;;;;14.27;8.15;;;;;;;8.98;68.90;102116.31;6096013;19;20006;-71
2023/04/10 01:47:25;;;;;;;14.20;7.63;;;;;;;9.00;69.20;102108.41;6092348;19;20014;-71
2023/04/10 01:49:48;;;;;;;16.30;8.63;;;;;;;8.94;69.24;102113.75;6099108;19;20445;-71
2023/04/10 01:51:59;;;;;;;21.67;9.00;;;;;;;8.90;69.54;102106.78;6099891;19;20011;-71
2023/04/10 01:54:10;;;;;;;15.60;8.88;;;;;;;8.95;69.53;102112.84;6099590;19;20022;-70
2023/04/10 01:56:19;;;;;;;15.02;8.82;;;;;;;8.93;69.76;102107.66;6100835;19;20017;-71
2023/04/10 01:58:47;;;;;;;17.02;8.60;;;;;;;8.86;69.89;102105.97;6101821;19;20006;-72
2023/04/10 02:01:05;;;;;;;15.02;8.57;;;;;;;8.86;70.11;102110.38;6103056;19;20523;-71
2023/04/10 02:03:12;;;;;;;16.27;9.32;;;;;;;8.85;70.57;102101.63;6096471;19;20002;-71
2023/04/10 02:05:25;;;;;;;14.55;8.68;;;;;;;8.77;70.74;102104.34;6094911;19;20304;-70
2023/04/10 02:07:57;;;;;;;15.48;9.30;;;;;;;8.82;70.69;102099.06;6099836;19;20829;-70
2023/04/10 02:10:10;;;;;;;14.20;8.48;;;;;;;8.84;70.66;102106.88;6096999;19;20006;-77
2023/04/10 02:12:20;;;;;;;17.90;9.70;;;;;;;8.83;70.66;102105.16;6106168;19;20447;-79
2023/04/10 02:14:30;;;;;;;16.73;9.55;;;;;;;8.88;70.84;102104.22;6109790;19;20014;-77
2023/04/10 02:16:40;;;;;;;17.02;9.77;;;;;;;8.88;71.13;102105.97;6107230;19;20502;-79
2023/04/10 02:18:46;;;;;;;17.30;9.68;;;;;;;8.81;71.23;102102.56;6106503;19;20470;-77
2023/04/10 02:20:52;;;;;;;17.38;9.15;;;;;;;8.82;71.33;102109.53;6107570;19;20049;-77
2023/04/10 02:23:00;;;;;;;19.52;11.23;;;;;;;8.81;71.53;102110.41;6105685;19;20025;-77
2023/04/10 02:25:07;;;;;;;22.17;10.35;;;;;;;8.81;71.74;102104.31;6109269;19;20032;-77
2023/04/10 02:27:12;;;;;;;18.67;10.45;;;;;;;8.79;72.00;102106.94;6108248;19;20015;-77
2023/04/10 02:29:18;;;;;;;17.27;10.05;;;;;;;8.76;72.14;102102.59;6105795;19;20475;-77
2023/04/10 02:31:24;;;;;;;17.42;10.23;;;;;;;8.78;72.19;102102.59;6107094;19;20045;-77
2023/04/10 02:33:32;;;;;;;17.67;9.93;;;;;;;8.81;72.50;102105.19;6109302;19;20014;-78
2023/04/10 02:35:38;;;;;;;17.52;9.25;;;;;;;8.80;72.37;102111.31;6107444;19;20023;-78
2023/04/10 02:37:46;;;;;;;17.23;9.55;;;;;;;8.71;73.02;102107.03;6109534;19;20029;-78
2023/04/10 02:39:51;;;;;;;19.75;10.98;;;;;;;8.71;72.63;102109.66;6108868;19;20474;-77
2023/04/10 02:42:00;;;;;;;17.30;9.80;;;;;;;8.70;72.80;102115.78;6109922;19;20350;-77
2023/04/10 02:44:05;;;;;;;17.70;9.18;;;;;;;8.68;73.00;102114.94;6110808;19;20002;-77
2023/04/10 02:46:13;;;;;;;20.83;10.77;;;;;;;8.70;73.07;102115.78;6106321;19;20461;-78
2023/04/10 02:48:19;;;;;;;17.63;9.95;;;;;;;8.75;72.78;102116.59;6109427;19;20034;-78
2023/04/10 02:50:28;;;;;;;16.55;9.63;;;;;;;8.72;72.98;102114.03;6110891;19;20014;-78
2023/04/10 02:52:33;;;;;;;17.42;9.77;;;;;;;8.77;72.53;102116.59;6106154;19;20010;-79
2023/04/10 02:54:44;;;;;;;17.75;9.48;;;;;;;8.77;72.49;102114.84;6102769;19;20014;-71
2023/04/10 02:56:51;;;;;;;18.48;9.57;;;;;;;8.72;72.81;102107.94;6104378;19;20395;-71
2023/04/10 02:59:00;;;;;;;15.60;9.20;;;;;;;8.68;73.13;102107.06;6104463;19;20019;-71
2023/04/10 03:01:09;;;;;;;17.17;9.65;;;;;;;8.75;72.75;102107.88;6092346;19;20092;-70
2023/04/10 03:03:25;;;;;;;18.05;10.05;;;;;;;8.81;71.98;102113.03;6083843;19;20384;-70
2023/04/10 03:05:36;;;;;;;14.43;8.73;;;;;;;8.75;72.54;102100.88;6102815;19;20043;-78
2023/04/10 03:07:41;;;;;;;13.63;8.50;;;;;;;8.71;72.51;102101.78;6100186;19;20312;-78
2023/04/10 03:09:49;;;;;;;17.10;9.18;;;;;;;8.69;72.36;102093.09;6105620;19;20018;-78
2023/04/10 03:11:57;;;;;;;15.68;9.05;;;;;;;8.69;72.47;102098.34;6104256;19;20522;-78
2023/04/10 03:14:02;;;;;;;15.93;8.98;;;;;;;8.65;72.58;102096.63;6096849;19;20491;-78
2023/04/10 03:16:08;;;;;;;16.42;8.95;;;;;;;8.66;72.41;102094.88;6102152;19;20006;-75
2023/04/10 03:18:14;;;;;;;15.45;9.10;;;;;;;8.65;72.15;102086.16;6105727;19;20007;-77
2023/04/10 03:20:22;;;;;;;16.08;9.75;;;;;;;8.60;72.09;102090.59;6105588;19;20421;-77
2023/04/10 03:22:31;;;;;;;15.23;8.35;;;;;;;8.60;72.43;102093.19;6101762;19;20539;-77
2023/04/10 03:24:36;;;;;;;14.52;8.57;;;;;;;8.61;72.45;102094.06;6105717;19;20574;-77
2023/04/10 03:26:41;;;;;;;15.32;9.75;;;;;;;8.58;72.27;102087.09;6103463;19;20027;-78
2023/04/10 03:28:47;;;;;;;16.55;8.55;;;;;;;8.56;72.45;102095.00;6104888;19;20434;-77
2023/04/10 03:30:53;;;;;;;14.32;8.73;;;;;;;8.58;71.88;102084.50;6102603;19;20577;-77
2023/04/10 03:32:58;;;;;;;15.20;8.32;;;;;;;8.64;71.63;102080.94;6102173;19;20498;-77
2023/04/10 03:35:03;;;;;;;15.45;8.90;;;;;;;8.64;71.58;102078.34;6102506;19;20460;-79
2023/04/10 03:37:08;;;;;;;14.40;8.75;;;;;;;8.63;71.63;102077.44;6100992;19;20219;-77
2023/04/10 03:39:16;;;;;;;14.77;8.55;;;;;;;8.68;71.19;102065.16;6101127;19;20078;-77
2023/04/10 03:41:23;;;;;;;16.02;8.85;;;;;;;8.69;70.85;102056.41;6101829;19;20006;-77
2023/04/10 03:43:30;;;;;;;14.13;8.02;;;;;;;8.72;70.78;102060.75;6101337;19;20086;-77
2023/04/10 03:45:36;;;;;;;13.38;7.43;;;;;;;8.69;70.58;102053.78;6100651;19;20013;-77
2023/04/10 03:47:41;;;;;;;11.98;7.50;;;;;;;8.77;70.10;102051.94;6102641;19;20013;-77
2023/04/10 03:49:46;;;;;;;16.15;8.15;;;;;;;8.79;69.91;102047.53;6098487;19;20002;-78
2023/04/10 03:51:54;;;;;;;16.38;8.13;;;;;;;8.77;69.70;102049.31;6098789;19;20010;-77
2023/04/10 03:53:59;;;;;;;13.82;8.30;;;;;;;8.81;69.39;102051.88;6100855;19;21351;-78
2023/04/10 03:56:08;;;;;;;13.48;7.53;;;;;;;8.86;68.96;102044.84;6099551;19;20038;-78
2023/04/10 03:58:13;;;;;;;13.45;7.70;;;;;;;8.82;69.37;102038.78;6097789;19;20010;-78
2023/04/10 04:00:19;;;;;;;15.43;7.22;;;;;;;8.81;68.84;102038.78;6096333;19;20543;-77
2023/04/10 04:02:25;;;;;;;16.20;8.23;;;;;;;8.91;68.78;102040.38;6099122;19;20010;-77
2023/04/10 04:04:30;;;;;;;10.85;7.05;;;;;;;8.90;68.42;102036.91;6099584;19;20163;-79
2023/04/10 04:06:35;;;;;;;12.60;7.50;;;;;;;8.89;68.28;102032.53;6102961;19;20496;-77
2023/04/10 04:08:40;;;;;;;13.00;7.57;;;;;;;8.90;68.27;102041.25;6099368;19;20027;-77
2023/04/10 04:10:48;;;;;;;13.98;8.38;;;;;;;8.98;67.69;102035.03;6101301;19;20010;-77
2023/04/10 04:12:56;;;;;;;10.63;6.68;;;;;;;8.94;67.99;102032.47;6102040;19;20049;-78
2023/04/10 04:15:01;;;;;;;12.90;8.05;;;;;;;8.97;67.65;102030.66;6102697;19;20798;-77
2023/04/10 04:17:06;;;;;;;12.90;7.32;;;;;;;8.92;68.19;102039.50;6102723;19;20018;-77
2023/04/10 04:19:11;;;;;;;13.48;7.45;;;;;;;8.96;67.49;102038.56;6101331;19;21040;-77
2023/04/10 04:21:16;;;;;;;12.02;7.22;;;;;;;8.99;67.55;102028.03;6100603;19;20475;-76
2023/04/10 04:23:24;;;;;;;12.77;7.07;;;;;;;8.98;67.63;102027.19;6099589;19;20018;-77
2023/04/10 04:25:29;;;;;;;12.73;6.95;;;;;;;9.00;67.07;102021.88;6100794;19;20089;-78
2023/04/10 04:27:35;;;;;;;11.50;7.28;;;;;;;8.95;67.51;102032.47;6101535;19;20010;-78
2023/04/10 04:29:42;;;;;;;11.32;6.82;;;;;;;8.99;67.17;102017.56;6099269;19;20117;-78
2023/04/10 04:31:48;;;;;;;13.35;7.05;;;;;;;8.97;67.24;102014.94;6098843;19;20578;-78
2023/04/10 04:33:53;;;;;;;13.43;7.38;;;;;;;8.92;67.37;102013.28;6103191;19;20011;-78
2023/04/10 04:35:59;;;;;;;14.35;6.78;;;;;;;8.98;67.15;102006.19;6099628;19;20003;-77
2023/04/10 04:38:04;;;;;;;11.80;6.68;;;;;;;9.06;67.05;102008.72;6100633;19;20014;-77
2023/04/10 04:40:10;;;;;;;12.02;6.22;;;;;;;9.02;66.72;102002.63;6099692;19;20013;-77
2023/04/10 04:42:18;;;;;;;13.50;7.03;;;;;;;9.10;66.60;102004.28;6101722;19;20477;-78
2023/04/10 04:44:23;;;;;;;12.73;6.90;;;;;;;9.17;66.07;101998.91;6101878;19;20025;-77
2023/04/10 04:46:31;;;;;;;12.73;7.15;;;;;;;9.10;66.67;101996.41;6101080;19;20028;-77
2023/04/10 04:48:39;;;;;;;14.85;7.88;;;;;;;9.05;66.77;101999.09;6096529;19;20026;-78
2023/04/10 04:50:47;;;;;;;12.48;6.97;;;;;;;9.09;66.46;101995.53;6098717;19;20167;-77
2023/04/10 04:52:52;;;;;;;10.27;6.13;;;;;;;9.13;66.33;101997.22;6093399;19;20442;-77
2023/04/10 04:54:58;;;;;;;9.00;6.05;;;;;;;9.11;66.07;101991.16;6097100;19;20010;-77
2023/04/10 04:57:03;;;;;;;11.00;7.32;;;;;;;9.07;66.29;101994.69;6100806;19;20014;-77
2023/04/10 04:59:10;;;;;;;10.40;6.22;;;;;;;9.14;65.96;101998.09;6096677;19;20022;-79
2023/04/10 05:01:19;;;;;;;12.32;7.43;;;;;;;9.08;66.05;101996.41;6098070;19;20066;-77
2023/04/10 05:03:28;;;;;;;12.68;6.90;;;;;;;9.11;65.89;101996.41;6097692;19;20521;-78
2023/04/10 05:05:34;;;;;;;18.02;7.75;;;;;;;9.06;66.04;101989.47;6096389;19;20017;-77
2023/04/10 05:07:42;;;;;;;11.07;6.57;;;;;;;9.09;65.94;101987.69;6097111;19;20020;-77
2023/04/10 05:09:47;;;;;;;12.63;7.13;;;;;;;9.09;65.70;101992.94;6101936;19;20007;-77
2023/04/10 05:11:53;;;;;;;12.98;6.55;;;;;;;9.14;65.47;101988.47;6097079;19;20014;-78
2023/04/10 05:13:59;;;;;;;10.07;6.97;;;;;;;9.13;65.63;101994.59;6100878;19;20046;-78
2023/04/10 05:16:04;;;;;;;12.70;6.65;;;;;;;9.11;66.08;101985.91;6097608;19;20007;-77
2023/04/10 05:18:09;;;;;;;12.80;7.28;;;;;;;9.09;65.69;101985.06;6098792;19;20006;-79
2023/04/10 05:20:20;;;;;;;12.95;7.53;;;;;;;9.08;65.98;101988.56;6098309;19;20011;-78
2023/04/10 05:22:26;;;;;;;12.90;7.35;;;;;;;9.11;65.63;101996.41;6099466;19;20055;-78
2023/04/10 05:24:31;;;;;;;10.95;6.38;;;;;;;9.13;65.38;101991.97;6100749;19;20110;-78
2023/04/10 05:26:36;;;;;;;11.90;7.25;;;;;;;9.15;65.21;101998.06;6105677;19;20136;-77
2023/04/10 05:28:41;;;;;;;13.07;7.10;;;;;;;9.17;65.14;101985.78;6104938;19;20526;-77
2023/04/10 05:30:53;;;;;;;12.48;6.75;;;;;;;9.17;65.13;101996.28;6105167;19;20344;-77
2023/04/10 05:32:59;;;;;;;11.80;6.85;;;;;;;9.15;65.38;101982.31;6107299;19;20006;-78
2023/04/10 05:35:04;;;;;;;10.35;6.82;;;;;;;9.23;64.64;101984.81;6107019;19;20478;-77
2023/04/10 05:37:13;;;;;;;12.73;6.68;;;;;;;9.25;64.82;101982.19;6111905;19;20003;-77
2023/04/10 05:39:18;;;;;;;9.95;6.22;;;;;;;9.28;64.62;101980.38;6109839;19;20002;-77
2023/04/10 05:41:26;;;;;;;10.27;6.43;;;;;;;9.27;64.64;101986.53;6110018;19;19999;-77
2023/04/10 05:43:32;;;;;;;12.05;6.93;;;;;;;9.30;64.63;101985.59;6106867;19;20109;-78
2023/04/10 05:45:37;;;;;;;11.80;6.82;;;;;;;9.29;64.74;101978.59;6110052;19;20077;-77
2023/04/10 05:47:42;;;;;;;11.10;6.43;;;;;;;9.28;64.64;101974.25;6109597;19;20011;-77
2023/04/10 05:49:47;;;;;;;12.75;6.78;;;;;;;9.34;64.23;101976.78;6088576;19;20714;-78
2023/04/10 05:51:52;;;;;;;11.32;7.07;;;;;;;9.39;63.63;101964.44;6108845;19;20099;-78
2023/04/10 05:54:00;;;;;;;10.93;6.30;;;;;;;9.38;63.75;101965.34;6106983;19;20003;-77
2023/04/10 05:56:06;;;;;;;11.75;6.90;;;;;;;9.38;64.07;101962.72;6115425;19;20116;-78
2023/04/10 05:58:12;;;;;;;11.45;6.13;;;;;;;9.45;63.03;101957.34;6108303;19;20015;-79
2023/04/10 06:00:21;;;;;;;12.70;6.55;;;;;;;9.41;63.45;101971.41;6104899;19;20030;-78
2023/04/10 06:02:26;;;;;;;10.98;5.78;;;;;;;9.41;63.33;101968.78;6108693;19;20337;-79
2023/04/10 06:04:32;;;;;;;11.23;6.43;;;;;;;9.43;63.21;101969.63;6102937;19;20086;-79
2023/04/10 06:06:37;;;;;;;13.60;6.65;;;;;;;9.51;62.72;101953.75;6107794;19;20481;-78
2023/04/10 06:08:42;;;;;;;11.30;5.90;;;;;;;9.47;62.84;101962.53;6104459;19;20478;-79
2023/04/10 06:10:54;;;;;;;11.93;6.60;;;;;;;9.53;62.44;101956.31;6107086;19;20078;-79
2023/04/10 06:13:00;;;;;;;11.25;6.38;;;;;;;9.49;62.79;101958.16;6108366;19;20320;-77
2023/04/10 06:15:05;;;;;;;10.68;6.30;;;;;;;9.51;62.74;101956.38;6108571;19;20437;-77
2023/04/10 06:17:10;;;;;;;11.55;6.30;;;;;;;9.52;62.61;101944.97;6107192;19;20029;-77
2023/04/10 06:19:16;;;;;;;12.85;6.57;;;;;;;9.51;62.16;101938.00;6107718;19;20101;-77
2023/04/10 06:21:24;;;;;;;12.30;6.53;;;;;;;9.57;61.97;101935.25;6109989;19;20007;-77
2023/04/10 06:23:30;;;;;;;11.82;6.00;;;;;;;9.57;61.99;101930.00;6109864;19;20010;-77
2023/04/10 06:25:36;;;;;;;10.23;5.95;;;;;;;9.67;61.40;101928.06;6108854;19;20018;-78
2023/04/10 06:27:44;;;;;;;11.73;5.90;;;;;;;9.61;61.75;101928.16;6107314;19;20549;-78
2023/04/10 06:29:52;;;;;;;10.63;6.05;;;;;;;9.63;61.93;101916.75;6106624;19;20006;-78
2023/04/10 06:31:57;;;;;;;12.38;6.20;;;;;;;9.65;61.80;101904.47;6106645;19;20046;-78
2023/04/10 06:34:03;;;;;;;11.38;6.65;;;;;;;9.76;61.39;101908.66;6108106;19;20478;-78
2023/04/10 06:36:12;;;;;;;13.18;6.43;;;;;;;9.78;61.35;101904.25;6108637;19;20006;-78
2023/04/10 06:38:17;;;;;;;10.88;5.20;;;;;;;9.76;61.54;101899.00;6099658;19;20009;-78
2023/04/10 06:40:22;;;;;;;10.80;5.90;;;;;;;9.82;61.31;101900.63;6106251;19;20265;-77
2023/04/10 06:42:31;;;;;;;12.10;6.53;;;;;;;9.87;60.98;101898.78;6103662;19;20003;-77
2023/04/10 06:44:39;;;;;;;11.65;6.45;;;;;;;9.87;60.55;101899.69;6103234;19;20381;-79
2023/04/10 06:46:50;;;;;;;11.95;6.35;;;;;;;9.91;60.45;101891.72;6103313;19;20502;-77
2023/04/10 06:48:56;;;;;;;11.32;6.63;;;;;;;10.01;59.96;101890.66;6100115;19;20026;-78
2023/04/10 06:51:02;;;;;;;11.50;6.30;;;;;;;10.04;59.91;101888.81;6100024;19;20037;-78
2023/04/10 06:53:07;;;;;;;10.90;5.60;;;;;;;10.10;59.92;101896.53;6097811;19;20491;-77
2023/04/10 06:55:12;;;;;;;11.60;6.97;;;;;;;10.10;59.70;101885.19;6092026;19;20078;-76
2023/04/10 06:57:17;;;;;;;13.27;7.07;;;;;;;10.16;59.89;101882.41;6099924;19;20486;-77
2023/04/10 06:59:22;;;;;;;11.27;6.30;;;;;;;10.11;59.71;101885.16;6102935;19;20010;-77
2023/04/10 07:01:30;;;;;;;10.18;5.57;;;;;;;10.18;59.66;101888.50;6098966;19;20363;-77
2023/04/10 07:03:35;;;;;;;11.82;6.15;;;;;;;10.12;59.86;101891.28;6100242;19;20708;-78
2023/04/10 07:05:41;;;;;;;11.07;5.95;;;;;;;10.20;59.58;101886.72;6097293;19;20006;-77
2023/04/10 07:07:56;;;;;;;10.07;6.22;;;;;;;10.22;59.64;101878.81;6096418;19;20007;-77
2023/04/10 07:10:03;;;;;;;11.68;6.28;;;;;;;10.24;59.65;101879.63;6079430;19;20006;-77
2023/04/10 07:12:12;;;;;;;12.23;6.40;;;;;;;10.21;59.57;101885.78;6106027;19;20019;-78
2023/04/10 07:14:17;;;;;;;11.25;6.22;;;;;;;10.24;60.18;101876.97;6098046;19;20010;-77
2023/04/10 07:16:22;;;;;;;11.50;6.00;;;;;;;10.29;59.60;101876.03;6106952;19;20387;-77
2023/04/10 07:18:32;;;;;;;11.23;6.60;;;;;;;10.25;59.49;101870.84;6101757;19;26667;-78
2023/04/10 07:20:37;;;;;;;11.88;6.43;;;;;;;10.20;58.93;101868.31;6104215;19;20032;-80
2023/04/10 07:22:45;;;;;;;10.52;6.32;;;;;;;10.26;58.96;101868.16;6101593;19;20697;-79
2023/04/10 07:24:51;;;;;;;11.95;6.40;;;;;;;10.31;59.35;101862.84;6100293;19;20010;-79
2023/04/10 07:27:02;;;;;;;11.52;6.25;;;;;;;10.37;59.17;101852.19;6093161;19;20478;-79
2023/04/10 07:29:08;;;;;;;11.93;6.35;;;;;;;10.30;59.30;101848.84;6100842;19;20026;-80
2023/04/10 07:31:13;;;;;;;10.55;6.18;;;;;;;10.33;59.06;101851.41;6105240;19;20633;-79
2023/04/10 07:33:27;;;;;;;11.38;6.05;;;;;;;10.46;58.63;101841.47;6104289;19;20014;-71
2023/04/10 07:35:38;;;;;;;11.27;5.95;;;;;;;10.42;59.39;101839.81;6091289;19;20034;-71
2023/04/10 07:37:50;;;;;;;;;;;;;;;10.57;59.10;101838.59;6071506;19;20086;-71
2023/04/10 07:40:38;;;;;;;11.45;6.45;;;;;;;10.60;58.45;101840.28;6093073;19;20287;-73
2023/04/10 07:42:47;;;;;;;13.45;6.57;;;;;;;10.59;58.69;101835.94;6096866;19;20686;-79
2023/04/10 07:44:52;;;;;;;12.40;6.90;;;;;;;10.60;59.14;101840.28;6101880;19;20002;-78
2023/04/10 07:46:57;;;;;;;11.95;6.38;;;;;;;10.67;58.80;101826.09;6081819;19;20034;-77
2023/04/10 07:49:06;;;;;;;9.75;6.65;;;;;;;10.70;58.55;101820.75;6085330;19;20018;-78
2023/04/10 07:51:15;;;;;;;11.20;6.85;;;;;;;10.68;58.68;101809.41;6101058;19;20006;-78
2023/04/10 07:53:30;;;;;;;12.27;6.55;;;;;;;10.71;58.80;101809.31;6081574;19;20007;-79
2023/04/10 07:55:39;;;;;;;12.15;6.88;;;;;;;10.77;58.87;101809.19;6102946;19;20011;-79
2023/04/10 07:57:54;;;;;;;11.50;6.38;;;;;;;10.83;58.24;101800.28;6104547;19;20050;-74
2023/04/10 08:00:42;;;;;;;11.27;6.60;;;;;;;10.77;58.93;101812.66;6055318;19;20078;-72
2023/04/10 08:02:55;;;;;;;13.15;6.45;;;;;;;10.79;58.03;101807.34;6101246;19;20110;-71
2023/04/10 08:05:33;;;;;;;;;;;;;;;;;;;;;
2023/04/10 08:08:12;;;;;;;11.48;6.60;;;;;;;10.72;58.49;101790.91;6069257;19;20318;-71
2023/04/10 08:10:41;;;;;;;12.45;6.30;;;;;;;10.75;58.49;101785.56;6090835;19;20040;-72
2023/04/10 08:12:58;;;;;;;11.43;6.43;;;;;;;10.86;58.44;101781.78;6061325;19;20006;-71
2023/04/10 08:15:07;;;;;;;11.65;6.70;;;;;;;10.97;58.35;101775.31;6093399;19;20014;-73
2023/04/10 08:18:21;;;;;;;12.50;7.07;;;;;;;10.97;58.30;101772.69;6095329;19;20377;-75
2023/04/10 08:20:56;;;;;;;11.38;6.47;;;;;;;11.06;58.19;101774.22;6061047;19;20007;-73
2023/04/10 08:23:19;;;;;;;9.88;5.95;;;;;;;11.19;58.25;101777.38;6082920;19;20066;-73
2023/04/10 08:25:35;;;;;;;12.57;6.60;;;;;;;11.14;57.62;101776.66;6099712;19;20118;-73
2023/04/10 08:27:53;;;;;;;10.00;6.38;;;;;;;11.27;57.91;101772.75;6060692;19;20010;-73
2023/04/10 08:30:40;;;;;;;11.48;6.88;;;;;;;11.32;57.81;101770.88;6064425;19;20011;-74
2023/04/10 08:33:00;;;;;;;11.35;6.13;;;;;;;11.33;57.31;101767.31;6076895;19;20025;-73
2023/04/10 08:35:09;;;;;;;11.65;6.47;;;;;;;11.39;57.67;101764.50;6097813;19;20014;-73
2023/04/10 08:37:14;;;;;;;10.90;6.78;;;;;;;11.51;56.97;101770.31;6095206;19;20506;-74
2023/04/10 08:39:25;;;;;;;12.07;6.35;;;;;;;11.52;56.97;101762.38;6098277;19;20331;-74
2023/04/10 08:41:33;;;;;;;10.88;6.75;;;;;;;11.57;56.81;101754.34;6102514;19;20031;-74
2023/04/10 08:44:06;;;;;;;11.15;6.43;;;;;;;11.61;57.03;101755.94;6087715;19;20011;-74
2023/04/10 08:46:14;;;;;;;11.20;6.63;;;;;;;11.65;56.44;101737.41;6099292;19;20023;-74
2023/04/10 08:48:21;;;;;;;11.77;6.82;;;;;;;11.79;56.41;101731.69;6099005;19;20014;-76
2023/04/10 08:50:32;;;;;;;11.48;6.43;;;;;;;11.83;56.84;101740.38;6092535;19;20014;-73
2023/04/10 08:52:44;;;;;;;11.93;6.05;;;;;;;11.79;56.64;101731.69;6090794;19;20491;-74
2023/04/10 08:57:55;;;;;;;12.50;7.55;;;;;;;11.99;56.00;101730.25;6097387;19;20165;-73
2023/04/10 09:00:09;;;;;;;;;;;;;;;11.85;56.37;101722.75;6104689;19;20062;-72
2023/04/10 09:02:20;;;;;;;11.45;6.55;;;;;;;11.86;56.47;101725.38;6084780;19;19971;-79
2023/04/10 09:04:27;;;;;;;10.70;5.80;;;;;;;11.80;56.05;101722.91;6105597;19;20010;-81
2023/04/10 09:06:44;;;;;;;13.77;6.97;;;;;;;11.84;56.63;101724.50;6084160;19;20543;-73
2023/04/10 09:09:11;;;;;;;12.25;6.95;;;;;;;11.81;56.30;101716.72;6099268;19;20110;-72
2023/04/10 09:14:34;;;;;;;14.13;7.90;;;;;;;12.14;56.33;101710.44;6003758;19;20017;-73
2023/04/10 09:16:42;;;;;;;15.25;8.55;;;;;;;12.23;55.71;101703.09;6099844;19;20037;-75
2023/04/10 09:19:01;;;;;;;;;;;;;;;;;;;;;
2023/04/10 09:21:26;;;;;;;20.63;10.93;;;;;;;12.18;55.14;101699.75;6043995;19;20019;-73
2023/04/10 09:24:23;;;;;;;20.70;11.00;;;;;;;12.05;56.13;101687.91;6087498;19;20094;-73
2023/04/10 09:26:44;;;;;;;18.92;10.85;;;;;;;12.12;56.32;101678.03;6085550;19;20479;-74
2023/04/10 09:32:26;;;;;;;;;;;;;;;12.12;55.97;101680.66;6069238;19;20486;-74
2023/04/10 09:35:37;;;;;;;14.38;8.05;;;;;;;12.27;56.12;101672.25;5964876;19;20063;-73
2023/04/10 09:38:25;;;;;;;;;;;;;;;;;;;;;
2023/04/10 09:43:50;;;;;;;29.63;14.63;;;;;;;12.31;56.04;101671.22;6061459;19;20014;-75
2023/04/10 09:46:42;;;;;;;37.10;17.73;;;;;;;12.43;55.62;101670.78;6088645;19;20633;-74
2023/04/10 09:52:52;;;;;;;48.90;24.00;;;;;;;12.49;55.88;101660.03;6083256;19;20009;-74
2023/04/10 09:55:25;;;;;;;46.88;23.20;;;;;;;12.67;55.49;101645.31;5970380;19;20015;-75
2023/04/10 09:58:36;;;;;;;41.10;21.98;;;;;;;12.69;55.63;101642.63;6027007;19;20047;-75
2023/04/10 10:01:08;;;;;;;46.53;22.88;;;;;;;12.86;54.82;101634.09;6093746;19;20031;-75
2023/04/10 10:03:51;;;;;;;47.83;25.75;;;;;;;12.76;55.25;101644.13;6053794;19;20167;-73
2023/04/10 10:06:46;;;;;;;47.53;24.05;;;;;;;13.06;54.83;101644.78;6034156;19;20133;-74
2023/04/10 10:09:21;;;;;;;50.85;25.50;;;;;;;13.10;54.60;101632.31;6035604;19;20090;-76
2023/04/10 10:14:21;;;;;;;;;;;;;;;13.61;53.98;101618.88;6094138;19;20025;-74
2023/04/10 10:20:17;;;;;;;42.92;22.25;;;;;;;14.03;52.53;101619.78;6031687;19;20074;-74
2023/04/10 10:35:27;;;;;;;28.88;16.75;;;;;;;14.06;52.97;101590.59;5972591;19;20005;-75
2023/04/10 10:57:07;;;;;;;20.05;11.52;;;;;;;15.27;50.55;101520.66;6064307;19;20337;-73
2023/04/10 10:59:14;;;;;;;22.77;13.20;;;;;;;15.41;50.73;101520.00;6093387;19;20036;-74
2023/04/10 11:01:22;;;;;;;19.20;11.90;;;;;;;15.49;49.83;101517.81;6095217;19;20802;-73
2023/04/10 11:03:31;;;;;;;18.90;10.60;;;;;;;15.29;50.52;101508.22;6074308;19;20006;-73
2023/04/10 11:05:54;;;;;;;14.77;9.00;;;;;;;15.27;50.28;101505.66;6095366;19;20416;-73
2023/04/10 11:08:11;;;;;;;15.05;9.70;;;;;;;15.41;50.26;101499.66;6094610;19;20026;-73
2023/04/10 11:11:03;;;;;;;14.77;8.95;;;;;;;15.40;49.46;101483.84;6036035;19;20007;-73